Time;durP1;ratioP1;P1;durP2;ratioP2;P2;SDS_P1;SDS_P2;PMS_P1;PMS_P2;Temp;Humidity;BMP_temperature;BMP_pressure;BME280_temperature;BME280_humidity;BME280_pressure;Samples;Min_cycle;Max_cycle;Signal;HPM_P1;HPM_P2
2022/11/07 00:01:45;;;;;;;0.40;0.30;;;9.50;99.90;;;;;;5119135;28;20460;-87
2022/11/07 00:04:12;;;;;;;0.30;0.30;;;9.60;99.90;;;;;;5114675;28;20448;-86
2022/11/07 00:06:39;;;;;;;0.40;0.30;;;9.60;99.90;;;;;;5114459;28;20443;-86
2022/11/07 00:09:06;;;;;;;0.70;0.30;;;9.60;99.90;;;;;;5114461;28;20443;-84
2022/11/07 00:11:32;;;;;;;1.70;0.40;;;9.60;99.90;;;;;;5113903;28;20942;-87
2022/11/07 00:14:01;;;;;;;0.73;0.47;;;9.50;99.90;;;;;;5114445;28;20453;-87
2022/11/07 00:16:28;;;;;;;0.30;0.30;;;9.50;99.90;;;;;;5114464;28;20955;-86
2022/11/07 00:18:55;;;;;;;0.50;0.30;;;9.40;99.90;;;;;;5114549;28;20432;-87
2022/11/07 00:21:22;;;;;;;0.33;0.30;;;9.30;99.90;;;;;;5114446;28;20934;-87
2022/11/07 00:23:48;;;;;;;0.30;0.30;;;9.30;99.90;;;;;;5114398;28;20476;-87
2022/11/07 00:26:16;;;;;;;0.30;0.30;;;9.20;99.90;;;;;;5114425;28;20950;-87
2022/11/07 00:28:43;;;;;;;0.30;0.20;;;9.30;99.90;;;;;;5114382;28;20443;-88
2022/11/07 00:31:13;;;;;;;3.27;0.50;;;9.30;99.90;;;;;;5114095;28;20452;-87
2022/11/07 00:33:40;;;;;;;0.47;0.30;;;9.30;99.90;;;;;;5114365;28;20520;-86
2022/11/07 00:36:08;;;;;;;0.40;0.30;;;9.40;99.90;;;;;;5114453;28;20447;-87
2022/11/07 00:38:35;;;;;;;0.30;0.20;;;9.40;99.90;;;;;;5114476;28;20455;-87
2022/11/07 00:41:05;;;;;;;0.30;0.30;;;9.50;99.90;;;;;;5131461;28;20451;-87
2022/11/07 00:43:32;;;;;;;0.30;0.20;;;9.50;99.90;;;;;;5132576;28;20470;-86
2022/11/07 00:46:02;;;;;;;1.40;0.30;;;9.50;99.90;;;;;;5131953;28;20434;-86
2022/11/07 00:48:31;;;;;;;0.40;0.30;;;9.60;99.90;;;;;;5127738;28;20539;-88
2022/11/07 00:51:04;;;;;;;0.50;0.40;;;9.60;99.90;;;;;;5114320;28;20443;-87
2022/11/07 00:53:31;;;;;;;0.40;0.30;;;9.50;99.90;;;;;;5114138;28;20486;-87
2022/11/07 00:56:01;;;;;;;0.30;0.20;;;9.50;99.90;;;;;;5114225;28;20440;-88
2022/11/07 00:58:27;;;;;;;0.30;0.20;;;9.50;99.90;;;;;;5115565;28;20435;-88
2022/11/07 01:00:54;;;;;;;0.40;0.37;;;9.40;99.90;;;;;;5114218;28;20813;-87
2022/11/07 01:06:07;;;;;;;0.60;0.50;;;9.40;99.90;;;;;;5114078;28;20403;-86
2022/11/07 01:08:34;;;;;;;0.30;0.30;;;9.40;99.90;;;;;;5114132;28;20452;-87
2022/11/07 01:11:05;;;;;;;0.40;0.30;;;9.40;99.90;;;;;;5114022;28;20448;-87
2022/11/07 01:13:33;;;;;;;0.50;0.27;;;9.50;99.90;;;;;;5114523;28;20488;-87
2022/11/07 01:16:00;;;;;;;1.60;0.50;;;9.50;99.90;;;;;;5117776;28;20451;-87
2022/11/07 01:18:27;;;;;;;0.30;0.30;;;9.50;99.90;;;;;;5117535;28;20474;-88
2022/11/07 01:20:54;;;;;;;0.40;0.40;;;9.50;99.90;;;;;;5117456;28;20538;-88
2022/11/07 01:23:22;;;;;;;0.30;0.30;;;9.60;99.90;;;;;;5117485;28;20467;-87
2022/11/07 01:25:49;;;;;;;0.40;0.30;;;9.60;99.90;;;;;;5117334;28;20965;-88
2022/11/07 01:28:16;;;;;;;0.70;0.30;;;9.60;99.90;;;;;;5117179;28;20455;-86
2022/11/07 01:30:44;;;;;;;0.40;0.30;;;9.60;99.90;;;;;;5117597;28;20534;-87
2022/11/07 01:33:12;;;;;;;0.30;0.30;;;9.60;99.90;;;;;;5116900;28;20528;-87
2022/11/07 01:35:39;;;;;;;0.33;0.30;;;9.60;99.90;;;;;;5117473;28;20447;-87
2022/11/07 01:38:07;;;;;;;0.40;0.30;;;9.60;99.90;;;;;;5117431;28;20454;-88
2022/11/07 01:41:19;;;;;;;0.50;0.40;;;9.50;99.90;;;;;;5116998;28;20938;-87
2022/11/07 01:43:44;;;;;;;2.20;0.70;;;9.50;99.90;;;;;;5116716;28;20460;-87
2022/11/07 01:46:11;;;;;;;0.30;0.30;;;9.40;99.90;;;;;;5116878;28;20951;-87
2022/11/07 01:48:38;;;;;;;0.50;0.40;;;9.40;99.90;;;;;;5117120;28;20462;-87
2022/11/07 01:51:06;;;;;;;0.40;0.37;;;9.40;99.90;;;;;;5116739;28;20459;-87
2022/11/07 01:53:35;;;;;;;0.30;0.30;;;9.40;99.90;;;;;;5116598;28;20483;-86
2022/11/07 01:56:05;;;;;;;0.30;0.20;;;9.50;99.90;;;;;;5117015;28;20447;-87
2022/11/07 01:58:31;;;;;;;0.93;0.30;;;9.60;99.90;;;;;;5117055;28;20432;-87
2022/11/07 02:00:58;;;;;;;0.40;0.40;;;9.60;99.90;;;;;;5116984;28;20447;-87
2022/11/07 02:03:25;;;;;;;0.57;0.40;;;9.60;99.90;;;;;;5116737;28;20471;-87
2022/11/07 02:05:58;;;;;;;0.50;0.40;;;9.60;99.90;;;;;;5116572;28;20458;-87
2022/11/07 02:08:27;;;;;;;1.07;0.40;;;9.70;99.90;;;;;;5116550;28;20523;-87
2022/11/07 02:10:55;;;;;;;0.30;0.30;;;9.80;99.90;;;;;;5116724;28;20450;-87
2022/11/07 02:13:26;;;;;;;0.40;0.30;;;9.80;99.90;;;;;;5116572;28;20532;-87
2022/11/07 02:15:53;;;;;;;1.53;0.40;;;9.80;99.90;;;;;;5116760;28;20427;-87
2022/11/07 02:18:21;;;;;;;0.40;0.30;;;9.80;99.90;;;;;;5116310;28;20475;-87
2022/11/07 02:20:49;;;;;;;0.40;0.30;;;9.90;99.90;;;;;;5116758;28;20499;-87
2022/11/07 02:23:25;;;;;;;0.40;0.40;;;9.90;99.90;;;;;;5116493;28;20849;-88
2022/11/07 02:25:54;;;;;;;0.30;0.30;;;10.00;99.90;;;;;;5116284;28;20436;-87
2022/11/07 02:28:23;;;;;;;0.70;0.50;;;10.00;99.90;;;;;;5116528;28;20444;-87
2022/11/07 02:30:50;;;;;;;0.40;0.30;;;10.10;99.90;;;;;;5116506;28;20450;-87
2022/11/07 02:33:17;;;;;;;0.40;0.30;;;10.10;99.90;;;;;;5116205;28;20562;-87
2022/11/07 02:35:46;;;;;;;0.40;0.30;;;10.10;99.90;;;;;;5116524;28;20450;-87
2022/11/07 02:38:19;;;;;;;0.30;0.30;;;10.20;99.90;;;;;;5116233;28;20458;-87
2022/11/07 02:40:48;;;;;;;0.40;0.30;;;10.20;99.90;;;;;;5116249;28;20427;-87
2022/11/07 02:43:19;;;;;;;0.47;0.30;;;10.20;99.90;;;;;;5116166;28;20798;-87
2022/11/07 02:45:48;;;;;;;0.40;0.30;;;10.20;99.90;;;;;;5116603;28;20440;-87
2022/11/07 02:48:15;;;;;;;0.37;0.30;;;10.10;99.90;;;;;;5116288;28;20454;-87
2022/11/07 02:50:43;;;;;;;0.30;0.30;;;10.10;99.90;;;;;;5115835;28;20448;-87
2022/11/07 02:53:10;;;;;;;0.30;0.30;;;10.10;99.90;;;;;;5115871;28;20479;-87
2022/11/07 02:55:37;;;;;;;0.30;0.20;;;10.10;99.90;;;;;;5115873;28;20460;-87
2022/11/07 02:58:04;;;;;;;1.73;0.50;;;10.10;99.90;;;;;;5115550;28;20973;-87
2022/11/07 03:00:32;;;;;;;0.40;0.40;;;10.10;99.90;;;;;;5115845;28;20452;-87
2022/11/07 03:02:59;;;;;;;0.30;0.30;;;10.10;99.90;;;;;;5115866;28;20462;-87
2022/11/07 03:05:25;;;;;;;0.97;0.40;;;10.10;99.90;;;;;;5115683;28;20448;-87
2022/11/07 03:07:52;;;;;;;0.40;0.30;;;10.10;99.90;;;;;;5115419;28;20458;-87
2022/11/07 03:10:19;;;;;;;0.80;0.40;;;10.10;99.90;;;;;;5115741;28;20450;-87
2022/11/07 03:12:46;;;;;;;0.30;0.30;;;10.10;99.90;;;;;;5115432;28;20483;-87
2022/11/07 03:15:14;;;;;;;1.50;0.40;;;10.10;99.90;;;;;;5115536;28;20456;-87
2022/11/07 03:17:42;;;;;;;0.30;0.20;;;10.10;99.90;;;;;;5115172;28;20522;-87
2022/11/07 03:20:10;;;;;;;0.40;0.30;;;10.10;99.90;;;;;;5128531;28;20454;-87
2022/11/07 03:22:37;;;;;;;0.30;0.30;;;10.20;99.90;;;;;;5134925;28;20490;-87
2022/11/07 03:25:04;;;;;;;0.50;0.40;;;10.10;99.90;;;;;;5136587;28;20464;-86
2022/11/07 03:27:31;;;;;;;0.40;0.40;;;10.00;99.90;;;;;;5127303;28;20969;-86
2022/11/07 03:29:58;;;;;;;0.60;0.37;;;10.00;99.90;;;;;;5119832;28;20562;-87
2022/11/07 03:32:25;;;;;;;0.30;0.27;;;9.90;99.90;;;;;;5114861;28;20473;-87
2022/11/07 03:34:53;;;;;;;0.40;0.30;;;9.80;99.90;;;;;;5115912;28;20792;-87
2022/11/07 03:37:20;;;;;;;0.50;0.30;;;9.80;99.90;;;;;;5114108;28;20454;-87
2022/11/07 03:39:47;;;;;;;0.40;0.30;;;9.70;99.90;;;;;;5114971;28;20452;-87
2022/11/07 03:42:13;;;;;;;0.53;0.37;;;9.60;99.90;;;;;;5114690;28;20974;-87
2022/11/07 03:44:40;;;;;;;0.30;0.27;;;9.60;99.90;;;;;;5115051;28;20781;-87
2022/11/07 03:47:07;;;;;;;1.17;0.50;;;9.60;99.90;;;;;;5114972;28;20432;-88
2022/11/07 03:49:34;;;;;;;0.40;0.30;;;9.60;99.90;;;;;;5114528;28;20450;-87
2022/11/07 03:52:02;;;;;;;0.30;0.30;;;9.60;99.90;;;;;;5114525;28;20971;-87
2022/11/07 03:54:29;;;;;;;0.30;0.30;;;9.60;99.90;;;;;;5114816;28;20494;-87
2022/11/07 03:56:55;;;;;;;0.47;0.47;;;9.60;99.90;;;;;;5114806;28;20452;-87
2022/11/07 03:59:22;;;;;;;0.40;0.37;;;9.60;99.90;;;;;;5115185;28;20543;-87
2022/11/07 04:01:49;;;;;;;0.60;0.40;;;9.60;99.90;;;;;;5114548;28;20474;-87
2022/11/07 04:04:16;;;;;;;0.30;0.20;;;9.70;99.90;;;;;;5114651;28;20443;-87
2022/11/07 04:06:43;;;;;;;0.70;0.40;;;9.80;99.90;;;;;;5114372;28;20528;-87
2022/11/07 04:09:11;;;;;;;0.30;0.30;;;9.70;99.90;;;;;;5114676;28;20458;-87
2022/11/07 04:17:21;;;;;;;0.40;0.40;;;9.60;99.90;;;;;;5114459;28;20470;-87
2022/11/07 04:19:49;;;;;;;0.40;0.30;;;9.60;99.90;;;;;;5114742;28;20813;-88
2022/11/07 04:22:15;;;;;;;0.40;0.40;;;9.60;99.90;;;;;;5114476;28;20464;-88
2022/11/07 04:24:44;;;;;;;1.67;0.33;;;9.50;99.90;;;;;;5114729;28;20446;-87
2022/11/07 04:29:56;;;;;;;0.30;0.30;;;9.50;99.90;;;;;;5114278;28;20500;-88
2022/11/07 04:32:23;;;;;;;0.50;0.50;;;9.50;99.90;;;;;;5114526;28;20462;-88
2022/11/07 04:34:50;;;;;;;0.30;0.30;;;9.50;99.90;;;;;;5114533;28;20483;-88
2022/11/07 04:37:17;;;;;;;3.33;0.30;;;9.50;99.90;;;;;;5114602;28;20447;-87
2022/11/07 04:39:45;;;;;;;0.70;0.50;;;9.50;99.90;;;;;;5114639;28;20447;-87
2022/11/07 04:42:12;;;;;;;0.50;0.47;;;9.50;99.90;;;;;;5114218;28;21033;-87
2022/11/07 04:44:39;;;;;;;0.30;0.30;;;9.50;99.90;;;;;;5114576;28;20540;-87
2022/11/07 04:47:06;;;;;;;0.40;0.40;;;9.50;99.90;;;;;;5114151;28;20451;-88
2022/11/07 04:49:33;;;;;;;0.30;0.20;;;9.40;99.90;;;;;;5118389;28;20460;-87
2022/11/07 04:52:00;;;;;;;0.50;0.40;;;9.40;99.90;;;;;;5118302;28;20979;-87
2022/11/07 04:54:26;;;;;;;0.97;0.40;;;9.30;99.90;;;;;;5118408;28;20518;-88
2022/11/07 04:56:55;;;;;;;0.40;0.30;;;9.30;99.90;;;;;;5118328;28;20454;-87
2022/11/07 04:59:21;;;;;;;0.30;0.30;;;9.30;99.90;;;;;;5117886;28;20459;-87
2022/11/07 05:01:48;;;;;;;0.30;0.20;;;9.30;99.90;;;;;;5118129;28;20860;-87
2022/11/07 05:04:15;;;;;;;0.60;0.30;;;9.30;99.90;;;;;;5118243;28;20424;-87
2022/11/07 05:06:42;;;;;;;0.30;0.30;;;9.30;99.90;;;;;;5118183;28;20452;-87
2022/11/07 05:09:12;;;;;;;0.30;0.30;;;9.30;99.90;;;;;;5117947;28;20452;-87
2022/11/07 05:11:39;;;;;;;0.30;0.30;;;9.30;99.90;;;;;;5117942;28;20922;-88
2022/11/07 05:14:08;;;;;;;0.40;0.30;;;9.30;99.90;;;;;;5117880;28;20486;-87
2022/11/07 05:16:35;;;;;;;0.90;0.90;;;9.40;99.90;;;;;;5117357;28;20454;-87
2022/11/07 05:19:02;;;;;;;0.30;0.30;;;9.30;99.90;;;;;;5117545;28;20933;-87
2022/11/07 05:21:29;;;;;;;0.37;0.37;;;9.30;99.90;;;;;;5118223;28;20452;-87
2022/11/07 05:23:56;;;;;;;0.40;0.40;;;9.40;99.90;;;;;;5117835;28;20447;-88
2022/11/07 05:26:23;;;;;;;0.30;0.30;;;9.40;99.90;;;;;;5117715;28;20471;-88
2022/11/07 05:28:50;;;;;;;1.57;0.93;;;9.40;99.90;;;;;;5117821;28;20451;-87
2022/11/07 05:31:18;;;;;;;0.30;0.30;;;9.40;99.90;;;;;;5117570;28;20821;-87
2022/11/07 05:33:45;;;;;;;0.70;0.70;;;9.30;99.90;;;;;;5117317;28;20494;-87
2022/11/07 05:36:14;;;;;;;0.40;0.40;;;9.30;99.90;;;;;;5118012;28;20446;-87
2022/11/07 05:38:42;;;;;;;0.40;0.30;;;9.30;99.90;;;;;;5117729;28;20446;-87
2022/11/07 05:41:09;;;;;;;0.30;0.30;;;9.30;99.90;;;;;;5118207;28;20443;-87
2022/11/07 05:43:37;;;;;;;0.40;0.30;;;9.40;99.90;;;;;;5118113;28;20466;-87
2022/11/07 05:46:04;;;;;;;0.77;0.50;;;9.30;99.90;;;;;;5118138;28;20473;-86
2022/11/07 05:48:32;;;;;;;0.50;0.40;;;9.30;99.90;;;;;;5118218;28;20448;-86
2022/11/07 05:50:59;;;;;;;0.50;0.37;;;9.30;99.90;;;;;;5118364;28;20501;-86
2022/11/07 05:53:27;;;;;;;0.80;0.30;;;9.40;99.90;;;;;;5128959;28;20540;-85
2022/11/07 05:55:54;;;;;;;0.40;0.30;;;9.30;99.90;;;;;;5138546;28;20452;-87
2022/11/07 05:58:21;;;;;;;0.30;0.30;;;9.40;99.90;;;;;;5139594;28;20443;-85
2022/11/07 06:00:48;;;;;;;0.30;0.30;;;9.40;99.90;;;;;;5137126;28;20535;-86
2022/11/07 06:03:15;;;;;;;0.50;0.30;;;9.50;99.90;;;;;;5123946;28;20462;-87
2022/11/07 06:05:44;;;;;;;0.33;0.30;;;9.50;99.90;;;;;;5117205;28;20509;-87
2022/11/07 06:08:13;;;;;;;0.50;0.30;;;9.50;99.90;;;;;;5116434;28;20454;-87
2022/11/07 06:10:42;;;;;;;0.77;0.30;;;9.60;99.90;;;;;;5116468;28;20536;-87
2022/11/07 06:13:11;;;;;;;0.40;0.30;;;9.60;99.90;;;;;;5116564;28;20463;-87
2022/11/07 06:15:39;;;;;;;0.30;0.30;;;9.60;99.90;;;;;;5116801;28;20449;-87
2022/11/07 06:18:08;;;;;;;0.30;0.30;;;9.70;99.90;;;;;;5116140;28;20484;-86
2022/11/07 06:20:35;;;;;;;1.27;0.30;;;9.70;99.90;;;;;;5116934;28;20450;-87
2022/11/07 06:23:05;;;;;;;0.30;0.30;;;9.70;99.90;;;;;;5116310;28;20511;-86
2022/11/07 06:25:32;;;;;;;0.50;0.47;;;9.70;99.90;;;;;;5116323;28;20819;-87
2022/11/07 06:27:59;;;;;;;0.40;0.30;;;9.80;99.90;;;;;;5116552;28;20451;-87
2022/11/07 06:30:27;;;;;;;0.33;0.27;;;9.80;99.90;;;;;;5116422;28;20473;-87
2022/11/07 06:32:54;;;;;;;0.30;0.20;;;9.90;99.90;;;;;;5116371;28;20468;-87
2022/11/07 06:35:20;;;;;;;0.30;0.30;;;9.90;99.90;;;;;;5116598;28;21008;-86
2022/11/07 06:37:47;;;;;;;0.40;0.33;;;9.90;99.90;;;;;;5116127;28;20447;-87
2022/11/07 06:40:15;;;;;;;0.40;0.30;;;9.90;99.90;;;;;;5116158;28;20462;-87
2022/11/07 06:42:42;;;;;;;0.30;0.20;;;10.00;99.90;;;;;;5116216;28;20466;-87
2022/11/07 06:45:11;;;;;;;0.40;0.33;;;10.00;99.90;;;;;;5117148;28;20435;-87
2022/11/07 06:47:37;;;;;;;0.40;0.30;;;10.10;99.90;;;;;;5116381;28;20447;-86
2022/11/07 06:50:05;;;;;;;0.77;0.30;;;10.10;99.90;;;;;;5116176;28;20540;-87
2022/11/07 06:52:32;;;;;;;0.40;0.30;;;10.10;99.90;;;;;;5116465;28;20463;-87
2022/11/07 06:54:59;;;;;;;1.23;0.33;;;10.20;99.90;;;;;;5115983;28;20497;-88
2022/11/07 06:57:27;;;;;;;0.30;0.20;;;10.10;99.90;;;;;;5116245;28;20447;-89
2022/11/07 06:59:54;;;;;;;0.40;0.30;;;10.20;99.90;;;;;;5120730;28;20440;-89
2022/11/07 07:02:21;;;;;;;0.30;0.30;;;10.20;99.90;;;;;;5116358;28;20462;-89
2022/11/07 07:04:48;;;;;;;0.83;0.30;;;10.10;99.90;;;;;;5116485;28;20942;-89
2022/11/07 07:07:15;;;;;;;0.40;0.30;;;10.10;99.90;;;;;;5116285;28;20448;-89
2022/11/07 07:09:41;;;;;;;0.60;0.30;;;10.10;99.90;;;;;;5116338;28;20817;-89
2022/11/07 07:12:10;;;;;;;0.30;0.30;;;10.10;99.90;;;;;;5115439;28;20829;-89
2022/11/07 07:14:38;;;;;;;0.33;0.33;;;10.20;99.90;;;;;;5116499;28;21000;-89
2022/11/07 07:17:05;;;;;;;1.17;0.43;;;10.20;99.90;;;;;;5116057;28;20479;-89
2022/11/07 07:19:32;;;;;;;1.13;0.40;;;10.20;99.90;;;;;;5116275;28;20454;-88
2022/11/07 07:21:59;;;;;;;0.30;0.30;;;10.20;99.90;;;;;;5115964;28;20478;-89
2022/11/07 07:24:26;;;;;;;3.70;0.40;;;10.30;99.90;;;;;;5116399;28;20452;-85
2022/11/07 07:26:53;;;;;;;0.40;0.30;;;10.30;99.90;;;;;;5115872;28;20539;-88
2022/11/07 07:29:19;;;;;;;0.40;0.40;;;10.30;99.90;;;;;;5116096;28;20438;-88
2022/11/07 07:31:48;;;;;;;0.30;0.30;;;10.40;99.90;;;;;;5116443;28;20483;-88
2022/11/07 07:34:14;;;;;;;0.40;0.33;;;10.40;99.90;;;;;;5115509;28;20838;-88
2022/11/07 07:36:41;;;;;;;0.40;0.37;;;10.40;99.90;;;;;;5115472;28;20450;-87
2022/11/07 07:39:08;;;;;;;0.80;0.33;;;10.40;99.90;;;;;;5115234;28;20432;-88
2022/11/07 07:41:35;;;;;;;0.40;0.30;;;10.50;99.90;;;;;;5115492;28;20453;-88
2022/11/07 07:44:02;;;;;;;0.40;0.40;;;10.50;99.90;;;;;;5115627;28;20459;-88
2022/11/07 07:46:29;;;;;;;0.40;0.37;;;10.60;99.90;;;;;;5115133;28;20938;-88
2022/11/07 07:48:57;;;;;;;0.40;0.30;;;10.60;99.90;;;;;;5115106;28;20448;-88
2022/11/07 07:51:24;;;;;;;1.60;0.63;;;10.60;99.90;;;;;;5115267;28;20452;-88
2022/11/07 07:53:50;;;;;;;0.70;0.50;;;10.70;99.90;;;;;;5115078;28;20479;-88
2022/11/07 07:56:17;;;;;;;1.17;0.47;;;10.70;99.90;;;;;;5115283;28;20958;-88
2022/11/07 07:58:44;;;;;;;3.17;0.90;;;10.70;99.90;;;;;;5115334;28;20451;-88
2022/11/07 08:01:11;;;;;;;0.30;0.30;;;10.80;99.90;;;;;;5115028;28;20447;-88
2022/11/07 08:03:38;;;;;;;0.30;0.27;;;10.80;99.90;;;;;;5114867;28;21005;-88
2022/11/07 08:06:07;;;;;;;0.40;0.30;;;10.90;99.90;;;;;;5115157;28;20461;-88
2022/11/07 08:08:34;;;;;;;0.40;0.40;;;10.90;99.90;;;;;;5115014;28;20470;-88
2022/11/07 08:11:01;;;;;;;0.40;0.40;;;11.00;99.90;;;;;;5115121;28;20505;-88
2022/11/07 08:13:28;;;;;;;0.30;0.30;;;11.00;99.90;;;;;;5114925;28;20821;-88
2022/11/07 08:15:55;;;;;;;0.30;0.30;;;11.00;99.90;;;;;;5114910;28;20480;-88
2022/11/07 08:18:23;;;;;;;0.40;0.30;;;11.10;99.90;;;;;;5114650;28;20476;-89
2022/11/07 08:20:50;;;;;;;0.40;0.30;;;11.20;99.90;;;;;;5114921;28;20458;-88
2022/11/07 08:23:18;;;;;;;0.73;0.30;;;11.20;99.90;;;;;;5114582;28;20836;-88
2022/11/07 08:25:50;;;;;;;0.33;0.30;;;11.20;99.90;;;;;;5114835;28;20455;-87
2022/11/07 08:28:18;;;;;;;0.50;0.50;;;11.30;99.90;;;;;;5114895;28;20481;-89
2022/11/07 08:30:44;;;;;;;0.70;0.40;;;11.30;99.90;;;;;;5114620;28;20456;-88
2022/11/07 08:33:11;;;;;;;1.23;0.33;;;11.40;99.90;;;;;;5114604;28;20463;-88
2022/11/07 08:35:38;;;;;;;1.07;0.30;;;11.40;99.90;;;;;;5114639;28;20519;-88
2022/11/07 08:38:05;;;;;;;0.50;0.30;;;11.40;99.90;;;;;;5114574;28;20939;-88
2022/11/07 08:40:33;;;;;;;0.30;0.30;;;11.50;99.90;;;;;;5114237;28;20539;-85
2022/11/07 08:43:00;;;;;;;0.30;0.30;;;11.50;99.90;;;;;;5114103;28;20497;-87
2022/11/07 08:45:27;;;;;;;5.90;0.43;;;11.50;99.90;;;;;;5114457;28;20444;-87
2022/11/07 08:47:57;;;;;;;2.20;0.40;;;11.60;99.90;;;;;;5114564;28;20447;-87
2022/11/07 08:50:25;;;;;;;0.40;0.30;;;11.70;99.90;;;;;;5114273;28;20500;-87
2022/11/07 08:52:51;;;;;;;0.50;0.30;;;11.80;99.90;;;;;;5114117;28;20464;-87
2022/11/07 08:55:18;;;;;;;0.33;0.33;;;11.90;99.90;;;;;;5113931;28;20480;-83
2022/11/07 08:57:46;;;;;;;0.60;0.30;;;12.10;99.90;;;;;;5114762;28;20443;-91
2022/11/07 09:00:14;;;;;;;6.10;0.70;;;12.40;99.90;;;;;;5115350;28;20950;-91
2022/11/07 09:02:41;;;;;;;1.17;0.30;;;12.50;99.90;;;;;;5115675;28;20471;-91
2022/11/07 09:05:08;;;;;;;0.30;0.30;;;12.60;99.90;;;;;;5114923;28;20490;-91
2022/11/07 09:07:38;;;;;;;0.60;0.60;;;12.80;99.90;;;;;;5115403;28;20440;-91
2022/11/07 09:10:06;;;;;;;0.70;0.47;;;13.10;99.90;;;;;;5116909;28;20785;-91
2022/11/07 09:12:32;;;;;;;0.30;0.30;;;13.30;99.90;;;;;;5116498;28;20467;-90
2022/11/07 09:15:01;;;;;;;0.40;0.30;;;13.40;99.90;;;;;;5117164;28;20480;-91
2022/11/07 09:17:28;;;;;;;0.40;0.30;;;13.50;99.90;;;;;;5118255;28;20476;-91
2022/11/07 09:19:54;;;;;;;0.60;0.50;;;13.60;99.90;;;;;;5135818;28;20444;-91
2022/11/07 09:22:21;;;;;;;0.40;0.40;;;13.60;99.90;;;;;;5136810;28;20470;-91
2022/11/07 09:24:48;;;;;;;0.40;0.40;;;13.90;99.90;;;;;;5135214;28;20511;-90
2022/11/07 09:27:15;;;;;;;0.30;0.30;;;14.60;99.90;;;;;;5132285;28;20500;-91
2022/11/07 09:29:41;;;;;;;0.40;0.30;;;15.10;99.90;;;;;;5127341;28;20448;-90
2022/11/07 09:32:09;;;;;;;0.50;0.50;;;15.30;99.90;;;;;;5115541;28;20471;-91
2022/11/07 09:34:36;;;;;;;0.50;0.50;;;15.30;99.90;;;;;;5116357;28;20490;-91
2022/11/07 09:37:03;;;;;;;0.87;0.40;;;14.90;99.90;;;;;;5118803;28;20448;-91
2022/11/07 09:39:30;;;;;;;0.40;0.30;;;14.40;99.90;;;;;;5118871;28;20444;-91
2022/11/07 09:42:05;;;;;;;2.10;0.40;;;14.10;99.90;;;;;;5118621;28;20472;-90
2022/11/07 09:44:54;;;;;;;0.43;0.40;;;13.90;99.90;;;;;;5118643;28;20421;-91
2022/11/07 09:47:27;;;;;;;0.30;0.30;;;13.70;99.90;;;;;;5119112;28;20492;-91
2022/11/07 09:49:59;;;;;;;0.40;0.40;;;13.60;99.90;;;;;;5119113;28;20756;-89
2022/11/07 09:52:34;;;;;;;0.40;0.30;;;13.50;99.90;;;;;;5118432;28;20463;-91
2022/11/07 09:55:06;;;;;;;0.50;0.50;;;13.40;99.90;;;;;;5118671;28;20510;-91
2022/11/07 09:57:35;;;;;;;0.30;0.30;;;13.30;99.90;;;;;;5118555;28;20432;-91
2022/11/07 10:00:04;;;;;;;0.30;0.30;;;13.20;99.90;;;;;;5118335;28;20459;-91
2022/11/07 10:02:36;;;;;;;0.40;0.40;;;13.10;99.90;;;;;;5118470;28;20474;-91
2022/11/07 10:05:04;;;;;;;0.47;0.40;;;13.00;99.90;;;;;;5118660;28;20428;-91
2022/11/07 10:07:40;;;;;;;0.40;0.30;;;12.90;99.90;;;;;;5118411;28;20440;-91
2022/11/07 10:10:16;;;;;;;0.50;0.40;;;12.90;99.90;;;;;;5118840;28;20443;-91
2022/11/07 10:13:18;;;;;;;0.50;0.40;;;13.00;99.90;;;;;;5118151;28;20830;-91
2022/11/07 10:15:58;;;;;;;0.50;0.30;;;13.00;99.90;;;;;;5115703;28;20479;-91
2022/11/07 10:18:41;;;;;;;0.63;0.40;;;13.10;99.90;;;;;;5117694;28;20487;-91
2022/11/07 10:21:14;;;;;;;0.40;0.30;;;13.10;99.90;;;;;;5118352;28;20446;-90
2022/11/07 10:23:52;;;;;;;0.60;0.43;;;13.10;99.90;;;;;;5117503;28;20468;-91
2022/11/07 10:26:22;;;;;;;0.40;0.30;;;13.10;99.90;;;;;;5117542;28;20500;-91
2022/11/07 10:28:57;;;;;;;0.40;0.30;;;13.10;99.90;;;;;;5117995;28;20447;-91
2022/11/07 10:31:30;;;;;;;0.37;0.30;;;13.10;99.90;;;;;;5117849;28;20541;-91
2022/11/07 10:34:02;;;;;;;0.50;0.37;;;13.10;99.90;;;;;;5119621;28;20527;-88
2022/11/07 10:36:30;;;;;;;0.30;0.30;;;13.20;99.90;;;;;;5116851;28;20464;-90
2022/11/07 10:39:00;;;;;;;0.50;0.30;;;13.30;99.90;;;;;;5117760;28;20444;-90
2022/11/07 10:41:29;;;;;;;0.40;0.30;;;13.40;99.90;;;;;;5116916;28;20501;-90
2022/11/07 10:44:00;;;;;;;0.70;0.40;;;13.40;99.90;;;;;;5116899;28;20958;-89
2022/11/07 10:46:35;;;;;;;0.30;0.20;;;13.40;99.90;;;;;;5116424;28;20803;-89
2022/11/07 10:49:15;;;;;;;2.40;1.80;;;13.40;99.90;;;;;;5116807;28;20434;-90
2022/11/07 10:51:43;;;;;;;0.50;0.30;;;13.50;99.90;;;;;;5116593;28;20436;-90
2022/11/07 10:54:19;;;;;;;0.30;0.30;;;13.50;99.90;;;;;;5116530;28;20452;-89
2022/11/07 10:56:49;;;;;;;0.77;0.33;;;13.50;99.90;;;;;;5117206;28;20780;-90
2022/11/07 10:59:25;;;;;;;1.03;0.30;;;13.60;99.90;;;;;;5116167;28;20443;-90
2022/11/07 11:01:53;;;;;;;0.60;0.60;;;13.50;99.90;;;;;;5116210;28;20807;-87
2022/11/07 11:04:23;;;;;;;1.03;0.40;;;13.50;99.90;;;;;;5116706;28;20420;-89
2022/11/07 11:06:57;;;;;;;0.40;0.30;;;13.50;99.90;;;;;;5116413;28;20538;-89
2022/11/07 11:09:29;;;;;;;0.50;0.30;;;13.60;99.90;;;;;;5116708;28;20445;-89
2022/11/07 11:11:56;;;;;;;0.40;0.30;;;13.60;99.90;;;;;;5115760;28;20478;-89
2022/11/07 11:14:23;;;;;;;0.50;0.50;;;13.70;99.90;;;;;;5115981;28;20456;-89
2022/11/07 11:16:54;;;;;;;0.40;0.40;;;13.80;99.90;;;;;;5116038;28;20479;-89
2022/11/07 11:19:24;;;;;;;0.30;0.30;;;13.80;99.90;;;;;;5116506;28;20453;-89
2022/11/07 11:21:53;;;;;;;0.30;0.30;;;13.80;99.90;;;;;;5116142;28;20978;-89
2022/11/07 11:24:37;;;;;;;0.40;0.30;;;13.80;99.90;;;;;;5116714;28;20573;-89
2022/11/07 11:27:10;;;;;;;0.30;0.30;;;13.80;99.90;;;;;;5114255;28;20447;-89
2022/11/07 11:29:44;;;;;;;0.30;0.30;;;13.80;99.90;;;;;;5115823;28;20427;-89
2022/11/07 11:32:23;;;;;;;0.50;0.30;;;13.80;99.90;;;;;;5115769;28;20464;-89
2022/11/07 11:34:59;;;;;;;1.13;0.30;;;13.90;99.90;;;;;;5115524;28;20765;-89
2022/11/07 11:37:27;;;;;;;0.40;0.33;;;13.90;99.90;;;;;;5115591;28;20442;-89
2022/11/07 11:40:11;;;;;;;0.50;0.30;;;13.90;99.90;;;;;;5115556;28;20451;-89
2022/11/07 11:42:48;;;;;;;0.30;0.30;;;14.00;99.90;;;;;;5115603;28;20478;-88
2022/11/07 11:45:24;;;;;;;0.40;0.30;;;14.10;99.90;;;;;;5115016;28;20428;-88
2022/11/07 11:47:59;;;;;;;0.40;0.30;;;14.10;99.90;;;;;;5115237;28;20442;-89
2022/11/07 11:50:36;;;;;;;0.30;0.30;;;14.20;99.90;;;;;;5115292;28;20967;-89
2022/11/07 11:53:03;;;;;;;0.77;0.30;;;14.30;99.90;;;;;;5115311;28;20985;-89
2022/11/07 11:55:38;;;;;;;0.30;0.30;;;14.40;99.90;;;;;;5115201;28;20490;-89
2022/11/07 11:58:17;;;;;;;0.40;0.30;;;14.50;99.90;;;;;;5114724;28;20442;-89
2022/11/07 12:00:51;;;;;;;0.40;0.40;;;14.50;99.90;;;;;;5114811;28;20432;-89
2022/11/07 12:03:48;;;;;;;0.90;0.40;;;14.50;99.90;;;;;;5115004;28;20467;-89
2022/11/07 12:06:19;;;;;;;3.80;0.40;;;14.60;99.90;;;;;;5115082;28;20432;-89
2022/11/07 12:09:16;;;;;;;0.60;0.60;;;14.70;99.90;;;;;;5115998;28;20516;-89
2022/11/07 12:11:53;;;;;;;0.30;0.30;;;14.80;99.90;;;;;;5114582;28;20937;-88
2022/11/07 12:14:43;;;;;;;0.40;0.40;;;14.80;99.90;;;;;;5114866;28;20432;-89
2022/11/07 12:17:17;;;;;;;3.60;0.40;;;14.70;99.90;;;;;;5114792;28;20494;-89
2022/11/07 12:19:50;;;;;;;0.30;0.30;;;14.70;99.90;;;;;;5115166;28;20424;-89
2022/11/07 12:22:27;;;;;;;0.40;0.40;;;14.70;99.90;;;;;;5115003;28;20558;-89
2022/11/07 12:25:01;;;;;;;0.33;0.30;;;14.80;99.90;;;;;;5115225;28;20428;-89
2022/11/07 12:27:34;;;;;;;0.50;0.40;;;14.90;99.90;;;;;;5115326;28;20428;-89
2022/11/07 12:30:10;;;;;;;1.33;0.50;;;15.00;99.90;;;;;;5115415;28;20435;-88
2022/11/07 12:32:49;;;;;;;0.50;0.40;;;15.00;99.90;;;;;;5115290;28;20466;-89
2022/11/07 12:35:32;;;;;;;0.30;0.30;;;15.00;99.90;;;;;;5115562;28;20470;-89
2022/11/07 12:38:32;;;;;;;0.53;0.40;;;15.00;99.90;;;;;;5114828;28;20439;-88
2022/11/07 12:41:06;;;;;;;0.47;0.40;;;14.90;99.90;;;;;;5117574;28;20511;-88
2022/11/07 12:43:47;;;;;;;0.37;0.30;;;14.90;99.90;;;;;;5116323;28;20524;-88
2022/11/07 12:46:20;;;;;;;0.63;0.40;;;14.90;99.90;;;;;;5115505;28;20435;-89
2022/11/07 12:49:19;;;;;;;0.40;0.40;;;14.70;99.90;;;;;;5114988;28;20440;-89
2022/11/07 12:51:56;;;;;;;0.40;0.30;;;14.70;99.90;;;;;;5078892;28;20946;-89
2022/11/07 12:54:38;;;;;;;1.50;0.30;;;14.60;99.90;;;;;;5114744;28;20441;-88
2022/11/07 12:57:12;;;;;;;0.40;0.30;;;14.60;99.90;;;;;;5114831;28;20494;-89
2022/11/07 12:59:41;;;;;;;0.50;0.30;;;14.40;99.90;;;;;;5114380;28;20427;-90
2022/11/07 13:02:22;;;;;;;0.40;0.30;;;14.30;99.90;;;;;;5114699;28;20463;-90
2022/11/07 13:04:53;;;;;;;0.30;0.27;;;14.30;99.90;;;;;;5114701;28;20448;-89
2022/11/07 13:07:23;;;;;;;0.30;0.30;;;14.20;99.90;;;;;;5114835;28;20511;-90
2022/11/07 13:09:58;;;;;;;0.30;0.30;;;14.10;99.90;;;;;;5117613;28;20432;-90
2022/11/07 13:12:30;;;;;;;0.40;0.40;;;14.10;99.90;;;;;;5118310;28;20466;-89
2022/11/07 13:14:57;;;;;;;0.30;0.30;;;14.10;99.90;;;;;;5123427;28;20424;-88